createdAt,value
2018-06-11T00:01:28.517Z,18.70
2018-06-11T00:03:56.910Z,20.23
2018-06-11T00:06:25.240Z,19.17
2018-06-11T00:08:53.281Z,18.67
2018-06-11T00:11:21.545Z,18.93
2018-06-11T00:13:49.863Z,20.60
2018-06-11T00:16:18.179Z,21.00
2018-06-11T00:18:46.464Z,20.63
2018-06-11T00:21:15.363Z,21.77
2018-06-11T00:23:44.304Z,20.30
2018-06-11T00:26:12.502Z,22.13
2018-06-11T00:28:40.722Z,20.93
2018-06-11T00:31:09.736Z,20.43
2018-06-11T00:33:38.042Z,20.73
2018-06-11T00:36:06.234Z,20.50
2018-06-11T00:38:34.568Z,21.33
2018-06-11T00:41:03.059Z,20.10
2018-06-11T00:43:31.299Z,20.93
2018-06-11T00:46:00.420Z,21.57
2018-06-11T00:48:28.702Z,21.90
2018-06-11T00:50:56.943Z,21.67
2018-06-11T00:53:25.302Z,22.17
2018-06-11T00:55:58.916Z,22.10
2018-06-11T00:58:27.022Z,22.23
2018-06-11T01:00:55.485Z,23.00
2018-06-11T01:03:23.739Z,22.70
2018-06-11T01:05:51.934Z,23.40
2018-06-11T01:08:20.244Z,22.50
2018-06-11T01:10:48.519Z,21.27
2018-06-11T01:13:16.734Z,21.03
2018-06-11T01:15:44.987Z,21.90
2018-06-11T01:18:13.279Z,21.53
2018-06-11T01:20:41.539Z,20.70
2018-06-11T01:23:09.920Z,21.63
2018-06-11T01:25:38.214Z,20.10
2018-06-11T01:28:06.544Z,21.30
2018-06-11T01:30:34.811Z,21.33
2018-06-11T01:33:03.109Z,21.77
2018-06-11T01:35:31.399Z,20.27
2018-06-11T01:37:59.690Z,21.17
2018-06-11T01:40:27.966Z,21.60
2018-06-11T01:42:56.202Z,22.43
2018-06-11T01:45:24.518Z,22.63
2018-06-11T01:47:52.525Z,22.93
2018-06-11T01:50:20.834Z,22.90
2018-06-11T01:52:49.091Z,21.07
2018-06-11T01:55:17.306Z,23.07
2018-06-11T01:57:45.494Z,21.80
2018-06-11T02:00:13.782Z,22.57
2018-06-11T02:02:42.069Z,22.90
2018-06-11T02:05:10.290Z,22.03
2018-06-11T02:07:38.542Z,23.53
2018-06-11T02:10:07.919Z,24.03
2018-06-11T02:12:36.146Z,23.90
2018-06-11T02:15:05.178Z,24.13
2018-06-11T02:17:33.439Z,24.40
2018-06-11T02:20:01.942Z,24.60
2018-06-11T02:22:30.210Z,24.10
2018-06-11T02:24:58.533Z,25.53
2018-06-11T02:27:26.816Z,23.93
2018-06-11T02:29:55.101Z,24.70
2018-06-11T02:32:23.370Z,24.80
2018-06-11T02:34:51.682Z,24.90
2018-06-11T02:37:19.942Z,25.33
2018-06-11T02:39:48.153Z,24.87
2018-06-11T02:42:16.441Z,24.75
2018-06-11T02:44:44.743Z,25.53
2018-06-11T02:47:13.006Z,25.50
2018-06-11T02:49:41.286Z,25.30
2018-06-11T02:52:09.624Z,25.87
2018-06-11T02:54:37.973Z,25.77
2018-06-11T02:57:06.290Z,25.40
2018-06-11T02:59:34.739Z,24.73
2018-06-11T03:02:03.545Z,24.50
2018-06-11T03:04:31.553Z,24.87
2018-06-11T03:06:59.849Z,25.20
2018-06-11T03:09:28.138Z,24.57
2018-06-11T03:11:56.486Z,23.87
2018-06-11T03:14:24.528Z,22.90
2018-06-11T03:16:52.815Z,23.13
2018-06-11T03:19:21.018Z,23.77
2018-06-11T03:21:49.319Z,23.30
2018-06-11T03:24:17.550Z,23.17
2018-06-11T03:26:45.868Z,23.93
2018-06-11T03:29:14.130Z,23.30
2018-06-11T03:31:42.448Z,22.20
2018-06-11T03:34:10.722Z,21.60
2018-06-11T03:36:39.050Z,22.03
2018-06-11T03:39:08.297Z,21.70
2018-06-11T03:41:37.215Z,22.03
2018-06-11T03:44:05.429Z,22.10
2018-06-11T03:46:33.718Z,21.53
2018-06-11T03:49:01.994Z,20.53
2018-06-11T03:51:30.396Z,21.07
2018-06-11T03:53:58.574Z,20.87
2018-06-11T03:56:26.773Z,20.97
2018-06-11T03:58:55.052Z,21.00
2018-06-11T04:01:23.391Z,21.90
2018-06-11T04:03:51.638Z,22.00
2018-06-11T04:06:19.939Z,20.17
2018-06-11T04:08:48.201Z,21.70
2018-06-11T04:11:16.428Z,21.73
2018-06-11T04:13:45.799Z,21.40
2018-06-11T04:16:14.067Z,22.63
2018-06-11T04:18:42.201Z,23.00
2018-06-11T04:21:10.544Z,23.73
2018-06-11T04:23:38.498Z,22.73
2018-06-11T04:26:06.706Z,22.57
2018-06-11T04:28:34.946Z,22.50
2018-06-11T04:31:03.279Z,22.67
2018-06-11T04:33:31.534Z,22.77
2018-06-11T04:35:59.810Z,21.80
2018-06-11T04:38:28.463Z,23.10
2018-06-11T04:40:56.453Z,24.00
2018-06-11T04:43:24.493Z,21.80
2018-06-11T04:45:52.702Z,22.60
2018-06-11T04:48:21.001Z,23.27
2018-06-11T04:50:49.138Z,23.67
2018-06-11T04:53:17.442Z,23.93
2018-06-11T04:55:45.730Z,23.50
2018-06-11T04:58:14.024Z,23.30
2018-06-11T05:00:42.280Z,23.03
2018-06-11T05:03:10.606Z,23.10
2018-06-11T05:05:38.870Z,22.90
2018-06-11T05:08:07.175Z,24.00
2018-06-11T05:10:35.443Z,22.70
2018-06-11T05:13:03.773Z,22.83
2018-06-11T05:15:32.123Z,22.77
2018-06-11T05:18:00.429Z,23.00
2018-06-11T05:20:28.639Z,22.40
2018-06-11T05:22:56.919Z,23.80
2018-06-11T05:25:25.235Z,24.43
2018-06-11T05:27:53.513Z,24.27
2018-06-11T05:30:21.819Z,23.77
2018-06-11T05:32:50.113Z,23.70
2018-06-11T05:35:18.565Z,24.20
2018-06-11T05:37:46.801Z,23.60
2018-06-11T05:40:14.877Z,23.70
2018-06-11T05:42:42.926Z,24.13
2018-06-11T05:45:11.198Z,23.73
2018-06-11T05:47:39.406Z,25.07
2018-06-11T05:50:07.703Z,26.30
2018-06-11T05:52:35.930Z,25.70
2018-06-11T05:55:04.930Z,28.10
2018-06-11T05:57:33.214Z,25.00
2018-06-11T06:00:02.467Z,27.23
2018-06-11T06:02:30.807Z,26.00
2018-06-11T06:04:59.062Z,27.17
2018-06-11T06:07:27.390Z,26.10
2018-06-11T06:09:55.565Z,25.80
2018-06-11T06:12:24.543Z,26.03
2018-06-11T06:14:52.790Z,25.70
2018-06-11T06:17:21.209Z,23.70
2018-06-11T06:19:49.492Z,26.10
2018-06-11T06:22:17.820Z,26.87
2018-06-11T06:24:46.134Z,28.87
2018-06-11T06:27:14.383Z,28.13
2018-06-11T06:29:43.723Z,28.13
2018-06-11T06:32:11.974Z,29.50
2018-06-11T06:34:40.334Z,32.63
2018-06-11T06:37:09.491Z,30.03
2018-06-11T06:39:38.240Z,27.40
2018-06-11T06:42:06.395Z,27.70
2018-06-11T06:44:34.656Z,27.87
2018-06-11T06:47:02.854Z,26.73
2018-06-11T06:49:31.530Z,27.50
2018-06-11T06:52:00.103Z,27.40
2018-06-11T06:54:28.503Z,25.13
2018-06-11T06:56:56.535Z,27.87
2018-06-11T06:59:24.810Z,27.10
2018-06-11T07:01:53.594Z,28.17
2018-06-11T07:04:21.898Z,25.83
2018-06-11T07:06:50.167Z,25.87
2018-06-11T07:09:18.527Z,24.73
2018-06-11T07:11:46.722Z,24.70
2018-06-11T07:14:14.878Z,26.50
2018-06-11T07:16:43.449Z,25.23
2018-06-11T07:19:11.754Z,25.63
2018-06-11T07:21:40.022Z,24.10
2018-06-11T07:24:08.386Z,23.80
2018-06-11T07:26:36.467Z,24.33
2018-06-11T07:29:04.481Z,23.47
2018-06-11T07:31:33.727Z,23.40
2018-06-11T07:34:01.939Z,24.40
2018-06-11T07:36:30.206Z,25.13
2018-06-11T07:38:58.418Z,23.50
2018-06-11T07:41:26.703Z,24.00
2018-06-11T07:43:55.554Z,22.30
2018-06-11T07:46:23.743Z,22.13
2018-06-11T07:48:51.981Z,21.70
2018-06-11T07:51:21.250Z,22.70
2018-06-11T07:53:49.505Z,22.70
2018-06-11T07:56:17.629Z,20.00
2018-06-11T07:58:45.827Z,23.50
2018-06-11T08:01:14.298Z,23.00
2018-06-11T08:03:42.617Z,22.60
2018-06-11T08:06:11.010Z,20.90
2018-06-11T08:08:39.355Z,21.37
2018-06-11T08:11:08.734Z,20.10
2018-06-11T08:13:37.060Z,22.57
2018-06-11T08:16:05.660Z,19.77
2018-06-11T08:18:34.011Z,21.20
2018-06-11T08:21:02.254Z,21.00
2018-06-11T08:23:30.708Z,20.43
2018-06-11T08:25:58.862Z,20.80
2018-06-11T08:28:28.582Z,21.47
2018-06-11T08:30:57.949Z,20.73
2018-06-11T08:33:26.139Z,21.40
2018-06-11T08:35:54.380Z,21.10
2018-06-11T08:38:22.726Z,21.40
2018-06-11T08:40:50.938Z,20.32
2018-06-11T08:43:19.317Z,23.47
2018-06-11T08:45:47.665Z,20.90
2018-06-11T08:48:15.719Z,20.50
2018-06-11T08:50:44.070Z,20.30
2018-06-11T08:53:12.405Z,20.43
2018-06-11T08:55:40.915Z,20.27
2018-06-11T08:58:09.168Z,20.43
2018-06-11T09:00:37.567Z,20.63
2018-06-11T09:03:05.983Z,22.23
2018-06-11T09:05:34.219Z,22.53
2018-06-11T09:08:02.407Z,20.60
2018-06-11T09:10:31.014Z,20.53
2018-06-11T09:12:59.282Z,20.40
2018-06-11T09:15:27.601Z,18.83
2018-06-11T09:17:55.941Z,19.03
2018-06-11T09:20:24.222Z,18.47
2018-06-11T09:22:52.463Z,20.00
2018-06-11T09:25:20.790Z,20.80
2018-06-11T09:27:49.030Z,21.50
2018-06-11T09:30:17.350Z,19.73
2018-06-11T09:32:45.930Z,22.27
2018-06-11T09:35:14.316Z,19.90
2018-06-11T09:37:42.629Z,17.20
2018-06-11T09:40:10.938Z,16.50
2018-06-11T09:42:39.254Z,14.40
2018-06-11T09:45:07.626Z,14.37
2018-06-11T09:47:35.897Z,14.77
2018-06-11T09:50:04.159Z,15.33
2018-06-11T09:52:32.582Z,16.37
2018-06-11T09:55:00.860Z,14.90
2018-06-11T09:57:29.224Z,14.40
2018-06-11T09:59:57.538Z,15.50
2018-06-11T10:02:26.867Z,13.43
2018-06-11T10:04:55.113Z,14.20
2018-06-11T10:07:23.414Z,13.20
2018-06-11T10:09:52.999Z,11.50
2018-06-11T10:12:21.320Z,11.40
2018-06-11T10:14:50.219Z,10.90
2018-06-11T10:17:18.467Z,9.73
2018-06-11T10:19:46.827Z,7.80
2018-06-11T10:22:15.106Z,7.80
2018-06-11T10:24:43.386Z,8.40
2018-06-11T10:27:11.814Z,10.10
2018-06-11T10:29:40.076Z,9.87
2018-06-11T10:32:08.487Z,9.50
2018-06-11T10:34:37.185Z,10.43
2018-06-11T10:37:05.454Z,9.13
2018-06-11T10:39:33.791Z,9.60
2018-06-11T10:42:04.014Z,8.67
2018-06-11T10:44:32.419Z,8.17
2018-06-11T10:47:00.662Z,7.47
2018-06-11T10:49:28.950Z,7.37
2018-06-11T10:51:58.185Z,6.57
2018-06-11T10:54:26.458Z,8.23
2018-06-11T10:56:54.719Z,8.03
2018-06-11T10:59:23.326Z,7.30
2018-06-11T11:01:52.175Z,8.27
2018-06-11T11:04:20.453Z,7.87
2018-06-11T11:06:48.774Z,8.33
2018-06-11T11:09:16.813Z,8.30
2018-06-11T11:11:45.162Z,7.63
2018-06-11T11:14:13.762Z,7.10
2018-06-11T11:16:42.178Z,7.17
2018-06-11T11:19:10.490Z,8.13
2018-06-11T11:21:39.158Z,7.80
2018-06-11T11:24:08.019Z,7.63
2018-06-11T11:26:36.206Z,6.67
2018-06-11T11:29:04.647Z,6.83
2018-06-11T11:31:32.930Z,7.10
2018-06-11T11:34:01.684Z,7.90
2018-06-11T11:36:29.938Z,7.20
2018-06-11T11:38:58.173Z,6.70
2018-06-11T11:41:26.383Z,7.40
2018-06-11T11:43:54.654Z,6.70
2018-06-11T11:46:23.222Z,7.07
2018-06-11T11:48:52.248Z,7.17
2018-06-11T11:51:20.563Z,5.77
2018-06-11T11:53:49.258Z,6.60
2018-06-11T11:56:17.413Z,6.90
2018-06-11T11:58:45.850Z,7.07
2018-06-11T12:01:14.120Z,7.40
2018-06-11T12:03:42.109Z,6.10
2018-06-11T12:06:10.279Z,6.43
2018-06-11T12:08:38.877Z,7.60
2018-06-11T12:11:07.080Z,6.20
2018-06-11T12:13:35.465Z,6.10
2018-06-11T12:16:04.030Z,5.70
2018-06-11T12:18:32.524Z,5.40
2018-06-11T12:21:00.906Z,6.10
2018-06-11T12:23:29.355Z,6.00
2018-06-11T12:25:57.554Z,5.00
2018-06-11T12:28:26.092Z,5.63
2018-06-11T12:30:54.393Z,5.70
2018-06-11T12:33:22.634Z,4.60
2018-06-11T12:35:50.882Z,5.40
2018-06-11T12:38:19.210Z,4.27
2018-06-11T12:40:47.447Z,5.50
2018-06-11T12:43:15.710Z,5.23
2018-06-11T12:45:43.910Z,4.57
2018-06-11T12:48:13.299Z,4.67
2018-06-11T12:50:41.546Z,4.13
2018-06-11T12:53:09.608Z,5.17
2018-06-11T12:55:38.048Z,4.60
2018-06-11T12:58:06.326Z,4.73
2018-06-11T13:00:34.399Z,4.87
2018-06-11T13:03:02.630Z,5.17
2018-06-11T13:05:31.054Z,5.23
2018-06-11T13:07:59.551Z,4.87
2018-06-11T13:10:28.291Z,4.63
2018-06-11T13:12:56.561Z,5.10
2018-06-11T13:15:24.775Z,4.30
2018-06-11T13:17:53.002Z,4.70
2018-06-11T13:20:21.342Z,5.40
2018-06-11T13:22:49.449Z,4.80
2018-06-11T13:25:17.976Z,4.67
2018-06-11T13:27:46.209Z,4.90
2018-06-11T13:30:15.055Z,4.23
2018-06-11T13:32:43.907Z,8.80
2018-06-11T13:35:12.033Z,4.97
2018-06-11T13:37:40.261Z,4.57
2018-06-11T13:40:08.847Z,4.83
2018-06-11T13:42:37.591Z,5.47
2018-06-11T13:45:06.165Z,4.30
2018-06-11T13:47:34.409Z,5.47
2018-06-11T13:50:02.906Z,4.70
2018-06-11T13:52:31.104Z,4.90
2018-06-11T13:54:59.568Z,4.80
2018-06-11T13:57:28.052Z,4.50
2018-06-11T13:59:56.575Z,4.80
2018-06-11T14:02:24.918Z,5.87
2018-06-11T14:04:53.203Z,4.57
2018-06-11T14:07:21.402Z,4.40
2018-06-11T14:09:49.609Z,4.33
2018-06-11T14:12:18.857Z,5.40
2018-06-11T14:14:47.152Z,4.90
2018-06-11T14:17:15.705Z,4.50
2018-06-11T14:19:43.958Z,4.30
2018-06-11T14:22:13.518Z,5.47
2018-06-11T14:24:42.525Z,5.20
2018-06-11T14:27:10.855Z,5.70
2018-06-11T14:29:39.717Z,4.90
2018-06-11T14:32:08.193Z,4.80
2018-06-11T14:34:37.437Z,4.60
2018-06-11T14:37:05.828Z,4.20
2018-06-11T14:39:34.095Z,4.60
2018-06-11T14:42:03.801Z,4.53
2018-06-11T14:44:31.894Z,4.27
2018-06-11T14:47:00.097Z,4.30
2018-06-11T14:49:28.329Z,4.50
2018-06-11T14:51:56.638Z,4.67
2018-06-11T14:54:24.913Z,4.20
2018-06-11T14:56:53.159Z,3.90
2018-06-11T14:59:21.603Z,3.80
2018-06-11T15:01:50.513Z,4.97
2018-06-11T15:04:19.535Z,6.03
2018-06-11T15:06:48.122Z,4.30
2018-06-11T15:09:16.220Z,3.80
2018-06-11T15:11:45.173Z,4.07
2018-06-11T15:14:13.772Z,3.73
2018-06-11T15:16:41.986Z,4.20
2018-06-11T15:19:10.227Z,4.40
2018-06-11T15:21:38.455Z,3.90
2018-06-11T15:24:08.344Z,4.43
2018-06-11T15:26:36.686Z,4.20
2018-06-11T15:29:04.874Z,4.50
2018-06-11T15:31:33.171Z,3.87
2018-06-11T15:34:01.220Z,4.10
2018-06-11T15:36:29.472Z,4.00
2018-06-11T15:38:57.669Z,3.77
2018-06-11T15:41:25.946Z,3.83
2018-06-11T15:43:54.170Z,4.60
2018-06-11T15:46:22.439Z,4.37
2018-06-11T15:48:50.712Z,3.70
2018-06-11T15:51:19.342Z,3.93
2018-06-11T15:53:47.618Z,3.67
2018-06-11T15:56:16.119Z,4.90
2018-06-11T15:58:44.482Z,5.50
2018-06-11T16:01:12.955Z,5.30
2018-06-11T16:03:40.946Z,4.03
2018-06-11T16:06:09.198Z,4.20
2018-06-11T16:08:38.311Z,4.80
2018-06-11T16:11:07.359Z,3.50
2018-06-11T16:13:35.598Z,4.87
2018-06-11T16:16:03.815Z,4.53
2018-06-11T16:18:32.112Z,4.13
2018-06-11T16:21:00.747Z,8.10
2018-06-11T16:23:29.210Z,5.80
2018-06-11T16:25:57.660Z,4.77
2018-06-11T16:28:26.520Z,4.10
2018-06-11T16:30:54.771Z,4.10
2018-06-11T16:33:23.146Z,3.80
2018-06-11T16:35:51.527Z,4.40
2018-06-11T16:38:19.924Z,5.10
2018-06-11T16:40:48.199Z,5.40
2018-06-11T16:43:16.525Z,4.17
2018-06-11T16:45:45.350Z,6.00
2018-06-11T16:48:13.646Z,5.10
2018-06-11T16:50:42.697Z,5.70
2018-06-11T16:53:10.985Z,4.77
2018-06-11T16:55:39.518Z,6.10
2018-06-11T16:58:08.530Z,12.77
2018-06-11T17:00:36.519Z,5.87
2018-06-11T17:03:04.562Z,5.20
2018-06-11T17:05:32.830Z,3.70
2018-06-11T17:08:01.046Z,4.60
2018-06-11T17:10:29.298Z,9.20
2018-06-11T17:12:57.711Z,17.10
2018-06-11T17:15:25.890Z,6.23
2018-06-11T17:17:55.240Z,5.10
2018-06-11T17:20:24.264Z,7.80
2018-06-11T17:22:52.529Z,16.00
2018-06-11T17:25:20.722Z,9.23
2018-06-11T17:27:48.974Z,10.70
2018-06-11T17:30:17.889Z,5.33
2018-06-11T17:32:46.258Z,8.03
2018-06-11T17:35:15.685Z,9.47
2018-06-11T17:37:44.676Z,12.83
2018-06-11T17:40:13.297Z,7.37
2018-06-11T17:42:42.250Z,9.70
2018-06-11T17:45:11.646Z,72.03
2018-06-11T17:47:41.699Z,10.20
2018-06-11T17:50:09.913Z,9.70
2018-06-11T17:52:38.534Z,12.87
2018-06-11T17:55:06.896Z,10.60
2018-06-11T17:57:35.348Z,9.93
2018-06-11T18:00:05.699Z,23.10
2018-06-11T18:02:34.184Z,9.03
2018-06-11T18:05:02.211Z,27.40
2018-06-11T18:07:30.550Z,7.00
2018-06-11T18:09:58.886Z,7.80
2018-06-11T18:12:28.162Z,7.47
2018-06-11T18:14:56.383Z,8.20
2018-06-11T18:17:24.565Z,5.00
2018-06-11T18:19:52.789Z,5.63
2018-06-11T18:22:22.170Z,7.43
2018-06-11T18:24:50.622Z,6.50
2018-06-11T18:27:19.157Z,5.93
2018-06-11T18:29:47.440Z,5.53
2018-06-11T18:32:15.437Z,7.30
2018-06-11T18:34:43.734Z,6.37
2018-06-11T18:37:12.027Z,7.37
2018-06-11T18:39:40.418Z,6.40
2018-06-11T18:42:08.732Z,5.43
2018-06-11T18:44:37.307Z,6.20
2018-06-11T18:47:05.538Z,6.30
2018-06-11T18:49:33.846Z,5.30
2018-06-11T18:52:02.926Z,4.40
2018-06-11T18:54:31.902Z,7.10
2018-06-11T18:57:01.368Z,7.30
2018-06-11T18:59:29.791Z,6.27
2018-06-11T19:01:58.161Z,4.80
2018-06-11T19:04:28.282Z,5.10
2018-06-11T19:06:56.614Z,7.23
2018-06-11T19:09:28.698Z,8.50
2018-06-11T19:11:57.365Z,6.17
2018-06-11T19:14:25.458Z,5.03
2018-06-11T19:16:53.583Z,5.57
2018-06-11T19:19:21.826Z,4.30
2018-06-11T19:21:53.431Z,5.23
2018-06-11T19:24:22.017Z,4.70
2018-06-11T19:26:50.361Z,5.33
2018-06-11T19:29:18.467Z,9.83
2018-06-11T19:31:46.833Z,6.90
2018-06-11T19:34:15.184Z,4.80
2018-06-11T19:36:43.569Z,5.83
2018-06-11T19:39:11.944Z,15.73
2018-06-11T19:41:40.018Z,6.70
2018-06-11T19:44:08.098Z,5.10
2018-06-11T19:46:36.318Z,5.63
2018-06-11T19:49:04.542Z,5.97
2018-06-11T19:51:32.856Z,6.97
2018-06-11T19:54:01.260Z,5.50
2018-06-11T19:56:29.306Z,7.00
2018-06-11T19:58:57.614Z,4.33
2018-06-11T20:01:27.432Z,6.20
2018-06-11T20:03:56.918Z,5.10
2018-06-11T20:06:26.733Z,5.43
2018-06-11T20:08:55.030Z,5.23
2018-06-11T20:11:23.402Z,5.70
2018-06-11T20:13:52.805Z,5.40
2018-06-11T20:16:20.911Z,5.03
2018-06-11T20:18:49.155Z,4.80
2018-06-11T20:21:17.448Z,5.70
2018-06-11T20:23:46.093Z,6.77
2018-06-11T20:26:15.116Z,6.83
2018-06-11T20:28:43.662Z,6.45
2018-06-11T20:31:12.372Z,5.30
2018-06-11T20:33:40.712Z,6.43
2018-06-11T20:36:09.092Z,5.90
2018-06-11T20:38:37.490Z,5.03
2018-06-11T20:41:08.502Z,5.07
2018-06-11T20:43:37.692Z,4.97
2018-06-11T20:46:06.559Z,6.37
2018-06-11T20:48:35.279Z,5.13
2018-06-11T20:51:04.009Z,5.77
2018-06-11T20:53:32.743Z,5.03
2018-06-11T20:56:01.710Z,5.00
2018-06-11T20:58:30.020Z,5.73
2018-06-11T21:00:58.699Z,6.00
2018-06-11T21:03:27.995Z,5.37
2018-06-11T21:05:56.286Z,5.70
2018-06-11T21:08:24.521Z,5.37
2018-06-11T21:10:52.770Z,5.00
2018-06-11T21:13:22.070Z,5.00
2018-06-11T21:15:50.511Z,5.13
2018-06-11T21:18:18.825Z,5.20
2018-06-11T21:20:49.267Z,4.53
2018-06-11T21:23:17.483Z,4.93
2018-06-11T21:25:45.809Z,5.50
2018-06-11T21:28:14.089Z,5.57
2018-06-11T21:30:42.487Z,5.17
2018-06-11T21:33:10.926Z,6.40
2018-06-11T21:35:39.323Z,5.27
2018-06-11T21:38:07.610Z,4.57
2018-06-11T21:40:35.906Z,5.20
2018-06-11T21:43:04.142Z,5.63
2018-06-11T21:45:32.421Z,5.00
2018-06-11T21:48:01.471Z,5.27
2018-06-11T21:50:29.742Z,5.27
2018-06-11T21:52:57.818Z,5.40
2018-06-11T21:55:26.525Z,5.80
2018-06-11T21:57:54.555Z,5.20
2018-06-11T22:00:22.758Z,5.40
2018-06-11T22:02:52.040Z,4.80
2018-06-11T22:05:27.650Z,4.97
2018-06-11T22:07:56.230Z,5.23
2018-06-11T22:10:25.035Z,5.00
2018-06-11T22:12:53.382Z,5.10
2018-06-11T22:15:21.832Z,5.30
2018-06-11T22:17:50.074Z,6.10
2018-06-11T22:20:18.939Z,5.70
2018-06-11T22:22:47.614Z,5.87
2018-06-11T22:25:15.695Z,5.27
2018-06-11T22:27:43.986Z,5.10
2018-06-11T22:30:12.246Z,6.17
2018-06-11T22:32:40.550Z,6.27
2018-06-11T22:35:08.885Z,5.80
2018-06-11T22:37:36.878Z,6.27
2018-06-11T22:40:05.944Z,5.93
2018-06-11T22:42:34.195Z,5.53
2018-06-11T22:45:02.840Z,6.40
2018-06-11T22:47:37.546Z,5.67
2018-06-11T22:50:05.838Z,5.60
2018-06-11T22:52:34.091Z,5.70
2018-06-11T22:55:02.635Z,5.50
2018-06-11T22:57:31.115Z,5.83
2018-06-11T22:59:59.297Z,6.13
2018-06-11T23:02:27.601Z,6.07
2018-06-11T23:04:55.819Z,6.60
2018-06-11T23:07:23.834Z,5.77
2018-06-11T23:09:53.044Z,6.20
2018-06-11T23:12:21.342Z,5.77
2018-06-11T23:14:49.691Z,6.17
2018-06-11T23:17:18.097Z,6.70
2018-06-11T23:19:46.308Z,6.10
2018-06-11T23:22:14.566Z,6.00
2018-06-11T23:24:42.802Z,6.10
2018-06-11T23:27:11.799Z,6.40
2018-06-11T23:29:40.122Z,6.30
2018-06-11T23:32:08.398Z,6.50
2018-06-11T23:34:36.574Z,6.93
2018-06-11T23:37:04.827Z,7.50
2018-06-11T23:39:32.794Z,7.17
2018-06-11T23:42:01.042Z,6.23
2018-06-11T23:44:30.286Z,6.37
2018-06-11T23:46:58.483Z,6.53
2018-06-11T23:49:26.737Z,6.57
2018-06-11T23:51:54.915Z,7.13
2018-06-11T23:54:23.213Z,6.83
2018-06-11T23:56:52.683Z,6.90
2018-06-11T23:59:20.947Z,6.43
